Time;durP1;ratioP1;P1;durP2;ratioP2;P2;SDS_P1;SDS_P2;PMS_P1;PMS_P2;Temp;Humidity;BMP_temperature;BMP_pressure;BME280_temperature;BME280_humidity;BME280_pressure;Samples;Min_cycle;Max_cycle;Signal;HPM_P1;HPM_P2
2024/01/14 00:00:49;;;;;;;9.07;4.50;;;5.10;95.80;;;;;;4988960;28;20035;-80
2024/01/14 00:03:14;;;;;;;8.45;4.28;;;5.20;95.80;;;;;;4991370;28;20029;-81
2024/01/14 00:05:40;;;;;;;9.07;4.43;;;5.20;95.70;;;;;;4989368;28;20247;-80
2024/01/14 00:08:05;;;;;;;10.93;5.10;;;5.20;95.70;;;;;;4986516;28;20049;-82
2024/01/14 00:10:31;;;;;;;8.50;4.50;;;5.10;95.70;;;;;;4986625;28;20052;-81
2024/01/14 00:12:57;;;;;;;7.63;4.00;;;5.20;95.70;;;;;;4986631;28;20116;-80
2024/01/14 00:15:22;;;;;;;6.50;3.55;;;5.10;95.70;;;;;;4989830;28;20285;-81
2024/01/14 00:17:48;;;;;;;8.57;4.68;;;5.10;95.70;;;;;;4989398;28;20018;-84
2024/01/14 00:20:13;;;;;;;8.55;4.30;;;5.20;95.80;;;;;;4991009;28;20050;-80
2024/01/14 00:22:39;;;;;;;10.75;4.82;;;5.10;95.80;;;;;;4986571;28;20487;-81
2024/01/14 00:25:05;;;;;;;9.80;4.30;;;5.10;95.80;;;;;;5008189;28;20054;-82
2024/01/14 00:27:30;;;;;;;8.38;4.38;;;5.10;95.80;;;;;;4986930;28;20092;-79
2024/01/14 00:29:57;;;;;;;10.45;5.18;;;5.10;95.90;;;;;;4990926;28;20076;-79
2024/01/14 00:32:23;;;;;;;9.25;4.90;;;5.10;95.90;;;;;;4988937;28;20027;-81
2024/01/14 00:34:49;;;;;;;8.80;3.80;;;5.20;95.90;;;;;;4990357;28;20391;-82
2024/01/14 00:37:14;;;;;;;8.57;4.07;;;5.10;95.80;;;;;;4990275;28;20037;-82
2024/01/14 00:39:40;;;;;;;8.35;4.28;;;5.10;95.90;;;;;;4992596;28;20026;-79
2024/01/14 00:42:06;;;;;;;7.72;4.30;;;5.10;95.80;;;;;;4994054;28;20506;-83
2024/01/14 00:44:32;;;;;;;9.13;4.40;;;5.10;95.80;;;;;;4993796;28;20405;-83
2024/01/14 00:46:57;;;;;;;8.15;3.92;;;5.10;95.90;;;;;;4992679;28;20034;-83
2024/01/14 00:49:23;;;;;;;8.20;4.30;;;5.00;95.90;;;;;;4990822;28;20033;-80
2024/01/14 00:51:49;;;;;;;8.90;4.75;;;5.00;95.90;;;;;;4985199;28;20572;-80
2024/01/14 00:54:14;;;;;;;9.48;4.55;;;5.00;95.90;;;;;;4990677;28;20022;-83
2024/01/14 00:56:41;;;;;;;9.93;4.90;;;5.00;96.00;;;;;;4988207;28;20046;-80
2024/01/14 00:59:07;;;;;;;10.77;5.55;;;5.00;96.00;;;;;;4991167;28;20649;-82
2024/01/14 01:01:32;;;;;;;9.95;4.38;;;5.10;96.00;;;;;;4990228;28;20026;-79
2024/01/14 01:03:58;;;;;;;8.90;4.47;;;5.00;95.90;;;;;;4993980;28;20018;-83
2024/01/14 01:06:23;;;;;;;9.07;4.47;;;5.00;95.90;;;;;;4990349;28;20034;-80
2024/01/14 01:08:49;;;;;;;11.10;4.93;;;5.00;95.90;;;;;;4990334;28;20023;-82
2024/01/14 01:11:16;;;;;;;9.95;4.90;;;5.00;96.00;;;;;;4988362;28;20120;-81
2024/01/14 01:13:42;;;;;;;12.07;5.68;;;5.00;96.00;;;;;;4990941;28;20027;-80
2024/01/14 01:16:07;;;;;;;11.68;5.72;;;5.00;96.00;;;;;;4994130;28;20028;-80
2024/01/14 01:18:33;;;;;;;10.18;4.28;;;5.00;96.00;;;;;;4993984;28;20401;-82
2024/01/14 01:20:58;;;;;;;7.57;3.47;;;5.00;96.00;;;;;;4991101;28;20413;-82
2024/01/14 01:23:24;;;;;;;10.50;4.70;;;5.00;96.00;;;;;;4990984;28;20050;-80
2024/01/14 01:25:50;;;;;;;8.80;4.70;;;5.00;95.90;;;;;;4991486;28;20053;-81
2024/01/14 01:28:16;;;;;;;9.52;4.75;;;5.00;95.90;;;;;;4987173;28;20031;-81
2024/01/14 01:30:42;;;;;;;8.95;4.32;;;5.00;95.90;;;;;;4989930;28;20034;-81
2024/01/14 01:33:08;;;;;;;9.95;4.93;;;5.10;95.90;;;;;;4986192;28;20074;-78
2024/01/14 01:35:34;;;;;;;8.73;4.38;;;5.10;95.90;;;;;;4993571;28;20105;-82
2024/01/14 01:37:59;;;;;;;10.10;4.85;;;5.00;95.80;;;;;;4986179;28;20379;-81
2024/01/14 01:40:25;;;;;;;10.35;5.00;;;5.10;95.80;;;;;;4983897;28;20633;-81
2024/01/14 01:42:51;;;;;;;6.80;3.40;;;5.10;95.90;;;;;;4981015;28;20035;-82
2024/01/14 01:45:16;;;;;;;11.77;5.55;;;5.10;95.80;;;;;;4987947;28;20014;-81
2024/01/14 01:47:42;;;;;;;11.38;5.88;;;5.10;95.80;;;;;;4979918;28;20035;-78
2024/01/14 01:50:09;;;;;;;10.38;5.03;;;5.00;95.80;;;;;;4982455;28;20120;-82
2024/01/14 01:52:36;;;;;;;12.60;6.40;;;5.00;95.90;;;;;;4990877;28;20497;-80
2024/01/14 01:55:04;;;;;;;13.00;5.90;;;5.00;95.90;;;;;;4981525;28;20225;-80
2024/01/14 01:57:31;;;;;;;9.85;4.97;;;5.00;95.90;;;;;;4982632;28;20026;-81
2024/01/14 01:59:57;;;;;;;11.88;5.75;;;5.00;95.90;;;;;;4979615;28;20687;-80
2024/01/14 02:02:23;;;;;;;9.52;4.82;;;5.00;95.90;;;;;;4987037;28;20041;-79
2024/01/14 02:04:49;;;;;;;13.68;6.68;;;5.10;95.90;;;;;;4990341;28;20026;-81
2024/01/14 02:07:15;;;;;;;12.35;5.65;;;5.00;96.00;;;;;;4988067;28;20026;-82
2024/01/14 02:09:41;;;;;;;10.60;4.95;;;5.00;96.00;;;;;;4980379;28;20046;-81
2024/01/14 02:12:06;;;;;;;8.48;4.63;;;5.00;95.90;;;;;;4987439;28;20045;-80
2024/01/14 02:14:33;;;;;;;8.43;4.40;;;5.00;95.90;;;;;;4983626;28;20502;-80
2024/01/14 02:16:58;;;;;;;8.65;4.28;;;5.00;96.00;;;;;;4983585;28;20041;-79
2024/01/14 02:19:24;;;;;;;7.13;3.78;;;5.00;96.00;;;;;;4988660;28;20026;-78
2024/01/14 02:21:58;;;;;;;14.43;6.20;;;5.00;96.00;;;;;;4983205;28;20030;-81
2024/01/14 02:24:28;;;;;;;10.40;5.22;;;5.00;96.00;;;;;;4987513;28;20042;-80
2024/01/14 02:26:54;;;;;;;12.63;6.32;;;5.00;96.00;;;;;;4990253;28;20022;-77
2024/01/14 02:29:20;;;;;;;11.73;6.03;;;5.00;96.00;;;;;;4987380;28;20027;-81
2024/01/14 02:31:46;;;;;;;13.40;6.20;;;5.00;96.00;;;;;;4983411;28;20784;-80
2024/01/14 02:34:12;;;;;;;13.13;6.50;;;5.00;96.00;;;;;;4977314;28;20434;-82
2024/01/14 02:36:38;;;;;;;11.68;5.88;;;5.00;96.00;;;;;;4980866;28;20030;-77
2024/01/14 02:39:04;;;;;;;12.32;5.28;;;5.00;96.00;;;;;;4979095;28;20130;-81
2024/01/14 02:41:33;;;;;;;11.15;5.13;;;5.10;96.00;;;;;;4979380;28;20018;-80
2024/01/14 02:43:59;;;;;;;9.60;4.38;;;5.10;96.00;;;;;;4982599;28;20453;-78
2024/01/14 02:46:25;;;;;;;12.32;5.32;;;5.00;95.90;;;;;;4983244;28;20026;-81
2024/01/14 02:48:51;;;;;;;14.60;6.47;;;5.10;95.90;;;;;;4978405;28;20057;-80
2024/01/14 02:51:17;;;;;;;13.02;6.32;;;5.10;95.80;;;;;;4977794;28;20494;-80
2024/01/14 02:53:42;;;;;;;10.23;5.03;;;5.10;95.80;;;;;;4985611;28;20032;-81
2024/01/14 02:56:09;;;;;;;12.60;6.30;;;5.00;95.90;;;;;;4985161;28;20022;-81
2024/01/14 02:58:35;;;;;;;10.38;5.05;;;5.10;95.90;;;;;;4980766;28;20027;-79
2024/01/14 03:01:01;;;;;;;13.68;6.32;;;5.00;95.90;;;;;;4978894;28;20078;-80
2024/01/14 03:03:27;;;;;;;12.70;5.50;;;5.10;96.00;;;;;;4979371;28;20023;-79
2024/01/14 03:05:52;;;;;;;12.02;5.70;;;5.00;96.00;;;;;;4979915;28;20091;-77
2024/01/14 03:08:18;;;;;;;10.32;5.10;;;5.10;96.00;;;;;;4977879;28;20046;-80
2024/01/14 03:10:44;;;;;;;13.25;6.13;;;5.00;96.10;;;;;;4978522;28;20098;-78
2024/01/14 03:13:09;;;;;;;13.38;6.65;;;5.00;96.10;;;;;;4982447;28;20069;-79
2024/01/14 03:15:35;;;;;;;15.68;7.28;;;5.10;96.10;;;;;;4974802;28;20027;-78
2024/01/14 03:18:00;;;;;;;13.63;6.70;;;5.00;96.10;;;;;;4976703;28;20152;-80
2024/01/14 03:20:27;;;;;;;13.02;6.22;;;5.00;96.20;;;;;;4986677;28;20030;-82
2024/01/14 03:22:53;;;;;;;8.75;4.75;;;5.00;96.10;;;;;;4981304;28;20079;-80
2024/01/14 03:25:18;;;;;;;11.35;5.28;;;5.00;96.10;;;;;;4979697;28;20022;-82
2024/01/14 03:27:44;;;;;;;9.43;4.88;;;5.00;96.10;;;;;;4980829;28;20344;-80
2024/01/14 03:30:10;;;;;;;11.32;5.30;;;5.00;96.00;;;;;;4974220;28;20062;-79
2024/01/14 03:32:36;;;;;;;13.02;6.05;;;5.00;96.00;;;;;;4982536;28;20076;-78
2024/01/14 03:35:01;;;;;;;13.02;6.13;;;5.10;96.00;;;;;;4980278;28;20144;-79
2024/01/14 03:37:27;;;;;;;13.27;6.68;;;5.00;95.90;;;;;;4973698;28;20114;-79
2024/01/14 03:39:53;;;;;;;13.20;6.45;;;5.00;95.90;;;;;;4981509;28;20149;-79
2024/01/14 03:42:18;;;;;;;11.20;5.80;;;5.00;95.90;;;;;;4981682;28;20023;-78
2024/01/14 03:44:44;;;;;;;14.07;6.50;;;5.00;95.90;;;;;;4978387;28;20027;-80
2024/01/14 03:47:09;;;;;;;12.25;5.97;;;5.00;95.90;;;;;;4978177;28;20838;-81
2024/01/14 03:49:35;;;;;;;10.48;4.70;;;5.00;95.90;;;;;;4982104;28;20038;-78
2024/01/14 03:52:00;;;;;;;10.35;5.15;;;5.00;95.90;;;;;;4980389;28;20231;-80
2024/01/14 03:54:26;;;;;;;11.88;5.63;;;5.00;95.90;;;;;;4986191;28;20027;-78
2024/01/14 03:56:51;;;;;;;10.43;5.07;;;5.10;95.90;;;;;;4981158;28;20034;-77
2024/01/14 03:59:17;;;;;;;11.25;5.07;;;5.00;95.80;;;;;;4985238;28;20065;-80
2024/01/14 04:01:43;;;;;;;14.65;7.18;;;5.20;95.80;;;;;;4984692;28;20030;-80
2024/01/14 04:04:09;;;;;;;15.40;6.90;;;5.00;95.80;;;;;;4991078;28;20018;-82
2024/01/14 04:06:35;;;;;;;16.65;7.47;;;5.00;95.90;;;;;;4990507;28;20100;-78
2024/01/14 04:09:01;;;;;;;11.95;5.25;;;4.90;95.90;;;;;;4980883;28;20019;-81
2024/01/14 04:11:27;;;;;;;13.25;6.50;;;4.90;96.00;;;;;;4985921;28;20489;-80
2024/01/14 04:13:52;;;;;;;14.60;6.80;;;4.90;96.00;;;;;;4989886;28;20027;-80
2024/01/14 04:16:18;;;;;;;12.15;5.85;;;4.90;96.00;;;;;;4981832;28;20030;-80
2024/01/14 04:18:44;;;;;;;11.88;5.85;;;4.90;96.00;;;;;;4981978;28;20271;-81
2024/01/14 04:21:23;;;;;;;12.40;5.95;;;4.90;96.00;;;;;;4980810;28;20026;-76
2024/01/14 04:23:49;;;;;;;11.07;5.38;;;4.80;96.00;;;;;;4982499;28;20019;-78
2024/01/14 04:26:19;;;;;;;11.25;5.25;;;4.90;96.10;;;;;;4980740;28;20023;-81
2024/01/14 04:28:44;;;;;;;11.52;5.38;;;4.80;96.10;;;;;;4985565;28;20029;-81
2024/01/14 04:31:10;;;;;;;16.95;7.60;;;4.80;96.10;;;;;;4989672;28;20026;-79
2024/01/14 04:33:36;;;;;;;12.32;5.95;;;4.80;96.00;;;;;;4984006;28;20041;-81
2024/01/14 04:36:02;;;;;;;15.43;6.93;;;4.80;96.10;;;;;;4985080;28;20433;-79
2024/01/14 04:38:27;;;;;;;18.17;7.38;;;4.70;96.10;;;;;;4982984;28;20491;-80
2024/01/14 04:40:53;;;;;;;15.43;6.82;;;4.70;96.10;;;;;;4980574;28;20370;-79
2024/01/14 04:43:18;;;;;;;14.77;7.15;;;4.70;96.10;;;;;;4986054;28;20022;-78
2024/01/14 04:45:44;;;;;;;17.63;7.75;;;4.70;96.10;;;;;;4985640;28;20027;-80
2024/01/14 04:48:09;;;;;;;15.63;7.60;;;4.70;96.10;;;;;;4982103;28;20030;-77
2024/01/14 04:50:36;;;;;;;21.02;8.98;;;4.70;96.20;;;;;;4984185;28;20038;-79
2024/01/14 04:53:01;;;;;;;15.18;7.25;;;4.70;96.10;;;;;;4977509;28;20034;-78
2024/01/14 04:55:27;;;;;;;15.80;6.70;;;4.70;96.10;;;;;;4977030;28;20030;-80
2024/01/14 04:57:52;;;;;;;14.50;6.97;;;4.60;96.10;;;;;;4984607;28;20030;-80
2024/01/14 05:00:19;;;;;;;17.70;8.32;;;4.70;96.10;;;;;;5000214;28;20104;-78
2024/01/14 05:02:44;;;;;;;16.80;7.85;;;4.70;96.20;;;;;;4986553;28;20015;-81
2024/01/14 05:05:10;;;;;;;17.88;7.82;;;4.60;96.10;;;;;;4982608;28;20036;-80
2024/01/14 05:07:35;;;;;;;15.50;6.38;;;4.60;96.10;;;;;;4981168;28;20030;-80
2024/01/14 05:10:01;;;;;;;16.60;7.50;;;4.60;96.10;;;;;;4982169;28;20033;-80
2024/01/14 05:12:27;;;;;;;19.00;8.20;;;4.60;96.20;;;;;;4988506;28;20034;-80
2024/01/14 05:14:52;;;;;;;16.83;7.57;;;4.60;96.10;;;;;;4981298;28;20026;-79
2024/01/14 05:17:18;;;;;;;14.80;6.82;;;4.60;96.20;;;;;;4984007;28;20060;-79
2024/01/14 05:19:43;;;;;;;24.33;10.82;;;4.50;96.10;;;;;;4979565;28;20457;-79
2024/01/14 05:22:09;;;;;;;17.98;8.25;;;4.50;96.20;;;;;;4999332;28;20030;-79
2024/01/14 05:24:34;;;;;;;16.75;7.45;;;4.50;96.20;;;;;;4985110;28;20482;-80
2024/01/14 05:27:00;;;;;;;17.67;7.65;;;4.50;96.20;;;;;;4980576;28;20426;-78
2024/01/14 05:29:26;;;;;;;18.63;8.00;;;4.50;96.20;;;;;;4987776;28;20084;-82
2024/01/14 05:31:51;;;;;;;14.90;6.93;;;4.50;96.20;;;;;;4978755;28;20053;-81
2024/01/14 05:34:17;;;;;;;14.75;6.70;;;4.50;96.30;;;;;;4983452;28;20046;-80
2024/01/14 05:36:42;;;;;;;13.75;5.80;;;4.50;96.60;;;;;;4981134;28;20092;-81
2024/01/14 05:39:08;;;;;;;17.30;7.95;;;4.50;96.30;;;;;;4984992;28;20022;-78
2024/01/14 05:41:33;;;;;;;15.43;6.85;;;4.60;96.20;;;;;;4982215;28;20072;-81
2024/01/14 05:43:59;;;;;;;14.20;6.90;;;4.50;96.20;;;;;;4981917;28;20023;-78
2024/01/14 05:46:24;;;;;;;18.30;8.25;;;4.50;96.10;;;;;;4985030;28;20058;-80
2024/01/14 05:48:50;;;;;;;18.88;8.50;;;4.50;96.10;;;;;;4982587;28;20019;-79
2024/01/14 05:51:16;;;;;;;20.17;9.60;;;4.50;96.10;;;;;;4984630;28;20022;-79
2024/01/14 05:53:41;;;;;;;22.15;9.68;;;4.50;96.20;;;;;;5010310;28;20256;-81
2024/01/14 05:56:07;;;;;;;16.52;8.02;;;4.40;96.10;;;;;;4986873;28;20018;-82
2024/01/14 05:58:34;;;;;;;18.20;8.43;;;4.40;96.10;;;;;;4987302;28;20110;-79
2024/01/14 06:01:00;;;;;;;15.63;7.55;;;4.40;96.10;;;;;;4986197;28;20490;-78
2024/01/14 06:03:26;;;;;;;13.05;6.30;;;4.40;96.20;;;;;;4983427;28;20478;-82
2024/01/14 06:05:51;;;;;;;13.80;6.47;;;4.40;96.20;;;;;;4985683;28;20049;-79
2024/01/14 06:08:17;;;;;;;14.38;6.60;;;4.40;96.10;;;;;;4977659;28;20373;-79
2024/01/14 06:10:43;;;;;;;14.13;6.80;;;4.40;96.10;;;;;;4982393;28;20080;-78
2024/01/14 06:13:08;;;;;;;18.00;7.15;;;4.40;96.20;;;;;;4981448;28;20402;-79
2024/01/14 06:15:34;;;;;;;15.10;7.05;;;4.40;96.20;;;;;;4984614;28;20039;-81
2024/01/14 06:18:00;;;;;;;17.42;7.80;;;4.30;96.20;;;;;;4987145;28;20026;-79
2024/01/14 06:20:25;;;;;;;17.15;7.97;;;4.30;96.20;;;;;;4980850;28;20015;-80
2024/01/14 06:22:51;;;;;;;16.67;7.88;;;4.20;96.20;;;;;;4990656;28;20034;-78
2024/01/14 06:25:16;;;;;;;16.13;7.72;;;4.20;96.30;;;;;;4976964;28;20023;-82
2024/01/14 06:27:42;;;;;;;14.02;6.85;;;4.20;96.30;;;;;;4985454;28;20038;-82
2024/01/14 06:30:08;;;;;;;15.77;7.80;;;4.20;96.40;;;;;;4980474;28;20033;-80
2024/01/14 06:32:34;;;;;;;16.63;7.45;;;4.20;96.40;;;;;;4983108;28;20454;-80
2024/01/14 06:35:00;;;;;;;21.55;9.85;;;4.20;96.30;;;;;;4981808;28;20034;-79
2024/01/14 06:37:25;;;;;;;19.63;8.98;;;4.20;96.30;;;;;;4986233;28;21648;-82
2024/01/14 06:39:51;;;;;;;16.23;7.53;;;4.20;96.30;;;;;;4989564;28;20030;-79
2024/01/14 06:42:17;;;;;;;16.00;7.40;;;4.10;96.30;;;;;;4987868;28;20026;-82
2024/01/14 06:44:42;;;;;;;18.17;8.02;;;4.10;96.30;;;;;;4981600;28;20072;-82
2024/01/14 06:47:08;;;;;;;14.52;6.60;;;4.10;96.40;;;;;;4984297;28;20034;-79
2024/01/14 06:49:34;;;;;;;13.98;6.30;;;4.10;96.40;;;;;;4978459;28;20077;-83
2024/01/14 06:52:00;;;;;;;15.93;7.75;;;4.10;96.40;;;;;;4984527;28;20084;-81
2024/01/14 06:54:25;;;;;;;15.88;7.68;;;4.10;96.40;;;;;;4986924;28;20451;-81
2024/01/14 06:56:51;;;;;;;18.38;8.40;;;4.10;96.40;;;;;;4988003;28;20088;-82
2024/01/14 06:59:18;;;;;;;16.60;7.68;;;4.10;96.40;;;;;;4980336;28;20105;-80
2024/01/14 07:01:44;;;;;;;15.48;7.15;;;4.10;96.60;;;;;;4988708;28;20045;-78
2024/01/14 07:04:10;;;;;;;18.58;8.85;;;4.10;96.40;;;;;;4979754;28;20030;-80
2024/01/14 07:06:35;;;;;;;17.95;7.95;;;4.00;96.60;;;;;;4977917;28;20049;-79
2024/01/14 07:09:01;;;;;;;17.92;7.05;;;4.00;96.40;;;;;;4978181;28;20050;-82
2024/01/14 07:11:26;;;;;;;16.25;6.78;;;4.00;96.40;;;;;;4974853;28;20027;-78
2024/01/14 07:13:52;;;;;;;13.93;6.30;;;4.00;96.40;;;;;;4977006;28;20022;-79
2024/01/14 07:16:18;;;;;;;18.63;8.40;;;4.00;96.40;;;;;;4986104;28;20045;-82
2024/01/14 07:18:43;;;;;;;17.02;7.22;;;4.00;96.40;;;;;;4982389;28;20030;-80
2024/01/14 07:21:11;;;;;;;13.68;6.22;;;3.90;96.40;;;;;;4979024;28;20108;-81
2024/01/14 07:23:37;;;;;;;17.35;7.53;;;4.00;96.50;;;;;;4987486;28;20521;-81
2024/01/14 07:26:14;;;;;;;17.30;7.57;;;3.90;96.40;;;;;;4981333;28;20335;-81
2024/01/14 07:28:39;;;;;;;15.25;7.05;;;4.00;96.40;;;;;;4983529;28;20037;-83
2024/01/14 07:31:05;;;;;;;14.88;7.03;;;4.00;96.40;;;;;;4982710;28;20110;-79
2024/01/14 07:33:30;;;;;;;14.13;6.95;;;4.00;96.40;;;;;;4980120;28;20567;-81
2024/01/14 07:35:56;;;;;;;14.45;6.82;;;4.00;96.30;;;;;;4986411;28;20030;-77
2024/01/14 07:38:22;;;;;;;13.90;6.65;;;4.00;96.50;;;;;;4984558;28;20042;-82
2024/01/14 07:40:47;;;;;;;14.70;6.00;;;4.00;96.30;;;;;;4985056;28;20022;-79
2024/01/14 07:43:13;;;;;;;17.02;7.65;;;4.00;96.30;;;;;;4984722;28;20587;-78
2024/01/14 07:45:39;;;;;;;17.40;7.82;;;4.00;96.30;;;;;;4985713;28;20451;-81
2024/01/14 07:48:04;;;;;;;14.50;7.10;;;4.00;96.30;;;;;;4981099;28;20037;-80
2024/01/14 07:50:30;;;;;;;17.27;7.47;;;4.00;96.40;;;;;;4983036;28;20026;-79
2024/01/14 07:52:55;;;;;;;18.92;8.38;;;3.90;96.40;;;;;;4979657;28;20030;-77
2024/01/14 07:55:21;;;;;;;16.20;6.50;;;3.90;96.40;;;;;;4980584;28;20054;-80
2024/01/14 07:57:46;;;;;;;18.13;7.75;;;4.00;96.50;;;;;;4976329;28;20080;-79
2024/01/14 08:00:13;;;;;;;17.65;7.55;;;3.90;96.40;;;;;;4977593;28;20030;-77
2024/01/14 08:02:39;;;;;;;15.32;7.05;;;3.90;96.40;;;;;;4977653;28;20095;-79
2024/01/14 08:05:04;;;;;;;16.15;6.75;;;4.00;96.40;;;;;;4970900;28;20434;-78
2024/01/14 08:07:30;;;;;;;16.17;7.13;;;4.00;96.60;;;;;;4978939;28;20224;-81
2024/01/14 08:09:56;;;;;;;16.08;6.65;;;4.00;96.40;;;;;;4986401;28;20366;-82
2024/01/14 08:12:22;;;;;;;16.23;6.95;;;4.00;96.30;;;;;;4979744;28;20045;-81
2024/01/14 08:14:48;;;;;;;14.95;7.63;;;4.00;96.30;;;;;;4979603;28;20308;-81
2024/01/14 08:17:15;;;;;;;16.05;7.00;;;4.00;96.20;;;;;;4977905;28;20038;-81
2024/01/14 08:19:41;;;;;;;17.70;7.47;;;4.00;96.30;;;;;;4987318;28;20049;-79
2024/01/14 08:22:07;;;;;;;16.70;8.40;;;4.00;96.30;;;;;;4987116;28;20031;-81
2024/01/14 08:24:33;;;;;;;14.85;6.63;;;4.00;96.40;;;;;;4981845;28;20023;-79
2024/01/14 08:26:59;;;;;;;18.67;8.50;;;4.00;96.40;;;;;;4979312;28;20034;-81
2024/01/14 08:29:25;;;;;;;19.20;8.38;;;4.00;96.40;;;;;;4979674;28;20090;-80
2024/01/14 08:31:50;;;;;;;16.88;7.20;;;4.00;96.40;;;;;;5001819;28;20061;-82
2024/01/14 08:34:16;;;;;;;13.68;6.03;;;4.00;96.40;;;;;;4987073;28;20031;-79
2024/01/14 08:36:41;;;;;;;17.38;7.80;;;4.00;96.40;;;;;;4988380;28;20058;-78
2024/01/14 08:39:07;;;;;;;26.38;11.60;;;3.90;96.40;;;;;;4980182;28;20023;-81
2024/01/14 08:41:32;;;;;;;22.48;9.88;;;3.90;96.50;;;;;;4984597;28;20027;-78
2024/01/14 08:43:59;;;;;;;20.58;9.30;;;3.90;96.50;;;;;;4984843;28;20054;-81
2024/01/14 08:46:26;;;;;;;20.38;9.82;;;4.00;96.50;;;;;;4985529;28;20014;-80
2024/01/14 08:48:52;;;;;;;28.30;11.30;;;4.00;96.40;;;;;;4992525;28;20088;-81
2024/01/14 08:51:17;;;;;;;27.80;12.98;;;3.90;96.40;;;;;;4986308;28;20030;-79
2024/01/14 08:53:43;;;;;;;24.75;10.27;;;3.80;96.50;;;;;;4987588;28;20088;-82
2024/01/14 08:56:09;;;;;;;20.65;9.20;;;3.90;96.60;;;;;;4990347;28;20107;-79
2024/01/14 08:58:34;;;;;;;22.35;10.05;;;3.80;96.60;;;;;;4975610;28;20779;-79
2024/01/14 09:01:00;;;;;;;19.83;9.07;;;3.80;96.70;;;;;;4982088;28;20022;-80
2024/01/14 09:03:26;;;;;;;19.65;7.65;;;3.90;96.80;;;;;;4980350;28;20035;-80
2024/01/14 09:05:51;;;;;;;20.08;9.90;;;3.90;96.80;;;;;;4989392;28;20029;-78
2024/01/14 09:08:17;;;;;;;21.63;9.60;;;3.90;96.70;;;;;;4990134;28;20034;-80
2024/01/14 09:10:43;;;;;;;16.98;7.65;;;3.90;96.60;;;;;;4987234;28;20651;-79
2024/01/14 09:13:09;;;;;;;24.30;10.43;;;3.90;96.60;;;;;;4990738;28;20096;-77
2024/01/14 09:15:34;;;;;;;21.67;9.07;;;4.00;96.60;;;;;;4985715;28;20097;-79
2024/01/14 09:18:00;;;;;;;23.23;10.40;;;4.00;96.60;;;;;;4983119;28;20121;-77
2024/01/14 09:20:26;;;;;;;19.45;8.60;;;3.90;96.50;;;;;;4987324;28;20027;-79
2024/01/14 09:22:51;;;;;;;18.70;8.05;;;4.00;96.60;;;;;;4985357;28;20023;-78
2024/01/14 09:25:17;;;;;;;25.33;10.10;;;4.00;96.50;;;;;;4988180;28;20030;-80
2024/01/14 09:27:43;;;;;;;19.20;8.68;;;4.00;96.50;;;;;;4983704;28;20041;-82
2024/01/14 09:30:12;;;;;;;20.48;9.65;;;4.00;96.50;;;;;;4984034;28;20114;-81
2024/01/14 09:32:37;;;;;;;24.77;10.73;;;4.00;96.50;;;;;;4987551;28;20433;-79
2024/01/14 09:35:04;;;;;;;24.48;10.65;;;4.00;96.60;;;;;;4988551;28;20030;-82
2024/01/14 09:37:29;;;;;;;20.70;9.70;;;4.00;96.50;;;;;;4987138;28;20022;-79
2024/01/14 09:39:55;;;;;;;19.30;9.02;;;4.00;96.60;;;;;;4982820;28;20045;-79
2024/01/14 09:42:34;;;;;;;20.52;9.27;;;4.00;96.60;;;;;;4986318;28;20421;-79
2024/01/14 09:45:01;;;;;;;14.98;6.70;;;4.00;96.60;;;;;;4983868;28;20023;-79
2024/01/14 09:47:27;;;;;;;13.73;6.00;;;4.10;96.60;;;;;;4985475;28;20023;-81
2024/01/14 09:49:54;;;;;;;18.40;8.38;;;4.10;96.50;;;;;;4984644;28;20037;-77
2024/01/14 09:52:21;;;;;;;15.10;6.35;;;4.10;96.50;;;;;;4985826;28;20034;-79
2024/01/14 09:54:47;;;;;;;17.15;8.02;;;4.10;96.50;;;;;;4987872;28;20105;-80
2024/01/14 09:57:17;;;;;;;21.00;8.95;;;4.10;96.40;;;;;;4989083;28;20105;-79
2024/01/14 09:59:43;;;;;;;20.95;8.82;;;4.10;96.40;;;;;;4987043;28;20027;-80
2024/01/14 10:02:11;;;;;;;21.20;10.57;;;4.10;96.40;;;;;;4981880;28;20026;-80
2024/01/14 10:04:42;;;;;;;20.77;9.23;;;4.10;96.50;;;;;;4983691;28;20022;-79
2024/01/14 10:07:09;;;;;;;24.15;10.60;;;4.10;96.40;;;;;;4977283;28;20041;-80
2024/01/14 10:09:35;;;;;;;21.38;9.27;;;4.10;96.50;;;;;;4980224;28;20034;-77
2024/01/14 10:12:01;;;;;;;15.02;7.18;;;4.10;96.50;;;;;;4977999;28;20042;-81
2024/01/14 10:14:28;;;;;;;15.00;7.20;;;4.10;96.50;;;;;;4981761;28;20073;-78
2024/01/14 10:16:59;;;;;;;15.50;7.32;;;4.20;96.50;;;;;;4978376;28;20049;-80
2024/01/14 10:19:25;;;;;;;15.77;7.47;;;4.20;96.50;;;;;;4979593;28;20026;-80
2024/01/14 10:21:55;;;;;;;16.92;8.00;;;4.20;96.50;;;;;;4983786;28;20018;-79
2024/01/14 10:24:21;;;;;;;18.80;8.88;;;4.20;96.50;;;;;;4985133;28;20029;-78
2024/01/14 10:26:54;;;;;;;19.00;8.02;;;4.30;96.50;;;;;;4977543;28;20026;-80
2024/01/14 10:29:21;;;;;;;14.52;6.85;;;4.30;96.50;;;;;;4982451;28;20038;-80
2024/01/14 10:31:47;;;;;;;21.90;9.73;;;4.30;96.40;;;;;;4982435;28;20038;-77
2024/01/14 10:34:14;;;;;;;15.05;7.75;;;4.30;96.30;;;;;;4983083;28;20035;-77
2024/01/14 10:36:40;;;;;;;18.83;8.88;;;4.30;96.40;;;;;;4983833;28;20030;-78
2024/01/14 10:39:10;;;;;;;14.40;6.68;;;4.20;96.30;;;;;;4980065;28;20031;-77
2024/01/14 10:41:35;;;;;;;18.60;8.05;;;4.30;96.40;;;;;;4983610;28;20065;-79
2024/01/14 10:44:01;;;;;;;14.35;6.50;;;4.20;96.40;;;;;;4975785;28;20022;-78
2024/01/14 10:46:30;;;;;;;15.73;6.68;;;4.30;96.40;;;;;;4984002;28;20116;-81
2024/01/14 10:49:05;;;;;;;16.05;7.25;;;4.30;96.40;;;;;;4983670;28;20522;-80
2024/01/14 10:51:34;;;;;;;21.73;9.10;;;4.30;96.40;;;;;;4987607;28;20030;-78
2024/01/14 10:54:25;;;;;;;16.08;6.70;;;4.20;96.30;;;;;;4990167;28;20027;-78
2024/01/14 10:57:01;;;;;;;17.80;8.07;;;4.20;96.40;;;;;;4982857;28;20031;-78
2024/01/14 10:59:28;;;;;;;14.88;6.93;;;4.20;96.40;;;;;;4988598;28;20076;-80
2024/01/14 11:01:57;;;;;;;12.35;5.93;;;4.20;96.50;;;;;;4977124;28;20148;-77
2024/01/14 11:04:25;;;;;;;18.83;8.48;;;4.20;96.50;;;;;;4983928;28;20026;-80
2024/01/14 11:06:55;;;;;;;17.65;7.97;;;4.10;96.40;;;;;;4984847;28;20022;-79
2024/01/14 11:09:21;;;;;;;16.67;7.53;;;4.10;96.50;;;;;;4983996;28;20026;-79
2024/01/14 11:12:01;;;;;;;13.85;6.47;;;4.20;96.60;;;;;;4983691;28;20033;-80
2024/01/14 11:14:40;;;;;;;19.48;7.50;;;4.20;96.50;;;;;;4983524;28;20402;-78
2024/01/14 11:17:41;;;;;;;11.23;5.13;;;4.20;96.50;;;;;;4984430;28;20030;-77
2024/01/14 11:20:14;;;;;;;14.35;6.43;;;4.30;96.60;;;;;;4980643;28;20034;-79
2024/01/14 11:22:39;;;;;;;24.63;7.22;;;4.30;96.40;;;;;;4983864;28;20038;-78
2024/01/14 11:25:12;;;;;;;18.33;7.32;;;4.40;96.40;;;;;;4990630;28;20555;-77
2024/01/14 11:27:39;;;;;;;18.25;7.50;;;4.40;96.40;;;;;;4979792;28;20042;-80
2024/01/14 11:30:09;;;;;;;16.73;7.63;;;4.40;96.40;;;;;;4982194;28;20529;-77
2024/01/14 11:32:35;;;;;;;13.38;6.10;;;4.40;96.30;;;;;;4987513;28;20034;-77
2024/01/14 11:35:02;;;;;;;14.30;6.45;;;4.40;96.30;;;;;;4984614;28;20027;-77
2024/01/14 11:37:37;;;;;;;14.48;6.75;;;4.40;96.20;;;;;;4988065;28;20030;-81
2024/01/14 11:40:06;;;;;;;13.98;6.28;;;4.40;96.20;;;;;;4982848;28;20031;-81
2024/01/14 11:42:36;;;;;;;12.52;5.78;;;4.40;96.30;;;;;;4977270;28;20041;-79
2024/01/14 11:45:21;;;;;;;13.60;5.90;;;4.40;96.30;;;;;;4984980;28;20046;-80
2024/01/14 11:47:46;;;;;;;11.30;5.30;;;4.40;96.30;;;;;;4987013;28;20088;-81
2024/01/14 11:50:15;;;;;;;12.13;5.78;;;4.50;96.40;;;;;;4990116;28;20353;-81
2024/01/14 11:52:45;;;;;;;13.07;6.32;;;4.50;96.30;;;;;;4981717;28;20027;-79
2024/01/14 11:55:16;;;;;;;13.55;5.85;;;4.50;96.30;;;;;;4983236;28;20030;-78
2024/01/14 11:57:44;;;;;;;17.75;7.13;;;4.50;96.30;;;;;;4989298;28;20070;-79
2024/01/14 12:00:11;;;;;;;14.38;6.28;;;4.40;96.20;;;;;;4981323;28;20522;-80
2024/01/14 12:02:37;;;;;;;16.52;6.20;;;4.40;96.30;;;;;;4990356;28;20110;-83
2024/01/14 12:05:19;;;;;;;12.88;6.38;;;4.50;96.40;;;;;;4989136;28;20034;-80
2024/01/14 12:07:44;;;;;;;14.60;6.88;;;4.50;96.40;;;;;;4989848;28;20035;-81
2024/01/14 12:10:18;;;;;;;13.05;6.45;;;4.50;96.40;;;;;;4991312;28;20030;-78
2024/01/14 12:12:44;;;;;;;16.05;6.22;;;4.50;96.40;;;;;;4993176;28;20029;-80
2024/01/14 12:15:10;;;;;;;16.60;6.78;;;4.50;96.40;;;;;;4991557;28;20026;-79
2024/01/14 12:17:36;;;;;;;17.17;7.35;;;4.50;96.40;;;;;;4990928;28;20040;-82
2024/01/14 12:20:04;;;;;;;14.60;6.13;;;4.50;96.40;;;;;;4986942;28;20026;-79
2024/01/14 12:22:30;;;;;;;21.73;9.60;;;4.40;96.40;;;;;;4989460;28;20023;-79
2024/01/14 12:24:56;;;;;;;23.48;10.65;;;4.50;96.40;;;;;;4996651;28;20560;-81
2024/01/14 12:27:21;;;;;;;20.45;8.82;;;4.50;96.40;;;;;;4990048;28;20085;-81
2024/01/14 12:29:47;;;;;;;17.17;7.75;;;4.40;96.50;;;;;;4992314;28;20034;-80
2024/01/14 12:32:13;;;;;;;16.40;7.57;;;4.40;96.50;;;;;;4991322;28;20124;-82
2024/01/14 12:34:40;;;;;;;15.50;7.32;;;4.40;96.50;;;;;;4992352;28;20036;-79
2024/01/14 12:37:06;;;;;;;15.70;6.57;;;4.40;96.40;;;;;;4985885;28;20027;-80
2024/01/14 12:39:32;;;;;;;10.70;4.75;;;4.50;96.50;;;;;;4985925;28;20027;-78
2024/01/14 12:42:00;;;;;;;10.63;5.32;;;4.50;96.40;;;;;;4994955;28;20080;-81
2024/01/14 12:44:26;;;;;;;12.55;6.15;;;4.50;96.40;;;;;;4993679;28;20161;-80